sensor_id;sensor_type;location;lat;lon;timestamp;temperature;humidity
47310;DHT22;33046;52.270;6.832;2023-11-21T00:02:00;10.60;99.90
47310;DHT22;33046;52.270;6.832;2023-11-21T00:04:09;10.60;99.90
47310;DHT22;33046;52.270;6.832;2023-11-21T00:06:15;10.60;99.90
47310;DHT22;33046;52.270;6.832;2023-11-21T00:08:22;10.60;99.90
47310;DHT22;33046;52.270;6.832;2023-11-21T00:10:29;10.60;99.90
47310;DHT22;33046;52.270;6.832;2023-11-21T00:12:36;10.60;99.90
47310;DHT22;33046;52.270;6.832;2023-11-21T00:14:43;10.60;99.90
47310;DHT22;33046;52.270;6.832;2023-11-21T00:16:50;10.60;99.90
47310;DHT22;33046;52.270;6.832;2023-11-21T00:18:57;10.60;99.90
47310;DHT22;33046;52.270;6.832;2023-11-21T00:21:06;10.70;99.90
47310;DHT22;33046;52.270;6.832;2023-11-21T00:23:13;10.60;99.90
47310;DHT22;33046;52.270;6.832;2023-11-21T00:25:19;10.70;99.90
47310;DHT22;33046;52.270;6.832;2023-11-21T00:27:26;10.60;99.90
47310;DHT22;33046;52.270;6.832;2023-11-21T00:29:33;10.70;99.90
47310;DHT22;33046;52.270;6.832;2023-11-21T00:31:40;10.60;99.90
47310;DHT22;33046;52.270;6.832;2023-11-21T00:33:47;10.60;99.90
47310;DHT22;33046;52.270;6.832;2023-11-21T00:35:54;10.70;99.90
47310;DHT22;33046;52.270;6.832;2023-11-21T00:38:02;10.70;99.90
47310;DHT22;33046;52.270;6.832;2023-11-21T00:40:10;10.70;99.90
47310;DHT22;33046;52.270;6.832;2023-11-21T00:42:17;10.70;99.90
47310;DHT22;33046;52.270;6.832;2023-11-21T00:44:24;10.70;99.90
47310;DHT22;33046;52.270;6.832;2023-11-21T00:46:31;10.60;99.90
47310;DHT22;33046;52.270;6.832;2023-11-21T00:48:38;10.60;99.90
47310;DHT22;33046;52.270;6.832;2023-11-21T00:50:45;10.60;99.90
47310;DHT22;33046;52.270;6.832;2023-11-21T00:52:52;10.70;99.90
47310;DHT22;33046;52.270;6.832;2023-11-21T00:55:00;10.60;99.90
47310;DHT22;33046;52.270;6.832;2023-11-21T00:57:07;10.60;99.90
47310;DHT22;33046;52.270;6.832;2023-11-21T00:59:14;10.70;99.90
47310;DHT22;33046;52.270;6.832;2023-11-21T01:01:21;10.60;99.90
47310;DHT22;33046;52.270;6.832;2023-11-21T01:03:28;10.60;99.90
47310;DHT22;33046;52.270;6.832;2023-11-21T01:05:35;10.60;99.90
47310;DHT22;33046;52.270;6.832;2023-11-21T01:07:42;10.60;99.90
47310;DHT22;33046;52.270;6.832;2023-11-21T01:09:50;10.60;99.90
47310;DHT22;33046;52.270;6.832;2023-11-21T01:11:58;10.60;99.90
47310;DHT22;33046;52.270;6.832;2023-11-21T01:14:05;10.60;99.90
47310;DHT22;33046;52.270;6.832;2023-11-21T01:16:12;10.60;99.90
47310;DHT22;33046;52.270;6.832;2023-11-21T01:18:20;10.60;99.90
47310;DHT22;33046;52.270;6.832;2023-11-21T01:20:27;10.60;99.90
47310;DHT22;33046;52.270;6.832;2023-11-21T01:22:33;10.60;99.90
47310;DHT22;33046;52.270;6.832;2023-11-21T01:24:40;10.60;99.90
47310;DHT22;33046;52.270;6.832;2023-11-21T01:26:47;10.60;99.90
47310;DHT22;33046;52.270;6.832;2023-11-21T01:28:55;10.60;99.90
47310;DHT22;33046;52.270;6.832;2023-11-21T01:31:04;10.60;99.90
47310;DHT22;33046;52.270;6.832;2023-11-21T01:33:11;10.60;99.90
47310;DHT22;33046;52.270;6.832;2023-11-21T01:35:18;10.60;99.90
47310;DHT22;33046;52.270;6.832;2023-11-21T01:37:25;10.70;99.90
47310;DHT22;33046;52.270;6.832;2023-11-21T01:39:32;10.60;99.90
47310;DHT22;33046;52.270;6.832;2023-11-21T01:41:39;10.60;99.90
47310;DHT22;33046;52.270;6.832;2023-11-21T01:43:46;10.60;99.90
47310;DHT22;33046;52.270;6.832;2023-11-21T01:45:55;10.60;99.90
47310;DHT22;33046;52.270;6.832;2023-11-21T01:48:02;10.60;99.90
47310;DHT22;33046;52.270;6.832;2023-11-21T01:50:13;10.60;99.90
47310;DHT22;33046;52.270;6.832;2023-11-21T01:52:21;10.60;99.90
47310;DHT22;33046;52.270;6.832;2023-11-21T01:54:28;10.60;99.90
47310;DHT22;33046;52.270;6.832;2023-11-21T01:56:35;10.60;99.90
47310;DHT22;33046;52.270;6.832;2023-11-21T01:58:43;10.60;99.90
47310;DHT22;33046;52.270;6.832;2023-11-21T02:00:50;10.70;99.90
47310;DHT22;33046;52.270;6.832;2023-11-21T02:02:58;10.60;99.90
47310;DHT22;33046;52.270;6.832;2023-11-21T02:05:06;10.70;99.90
47310;DHT22;33046;52.270;6.832;2023-11-21T02:07:13;10.70;99.90
47310;DHT22;33046;52.270;6.832;2023-11-21T02:09:25;10.60;99.90
47310;DHT22;33046;52.270;6.832;2023-11-21T02:11:32;10.60;99.90
47310;DHT22;33046;52.270;6.832;2023-11-21T02:13:39;10.70;99.90
47310;DHT22;33046;52.270;6.832;2023-11-21T02:15:46;10.70;99.90
47310;DHT22;33046;52.270;6.832;2023-11-21T02:17:53;10.70;99.90
47310;DHT22;33046;52.270;6.832;2023-11-21T02:20:01;10.70;99.90
47310;DHT22;33046;52.270;6.832;2023-11-21T02:22:09;10.70;99.90
47310;DHT22;33046;52.270;6.832;2023-11-21T02:24:18;10.70;99.90
47310;DHT22;33046;52.270;6.832;2023-11-21T02:26:25;10.70;99.90
47310;DHT22;33046;52.270;6.832;2023-11-21T02:28:32;10.60;99.90
47310;DHT22;33046;52.270;6.832;2023-11-21T02:30:38;10.70;99.90
47310;DHT22;33046;52.270;6.832;2023-11-21T02:32:45;10.60;99.90
47310;DHT22;33046;52.270;6.832;2023-11-21T02:34:52;10.60;99.90
47310;DHT22;33046;52.270;6.832;2023-11-21T02:36:59;10.60;99.90
47310;DHT22;33046;52.270;6.832;2023-11-21T02:39:06;10.60;99.90
47310;DHT22;33046;52.270;6.832;2023-11-21T02:41:14;10.60;99.90
47310;DHT22;33046;52.270;6.832;2023-11-21T02:43:21;10.70;99.90
47310;DHT22;33046;52.270;6.832;2023-11-21T02:45:28;10.60;99.90
47310;DHT22;33046;52.270;6.832;2023-11-21T02:47:35;10.60;99.90
47310;DHT22;33046;52.270;6.832;2023-11-21T02:49:42;10.60;99.90
47310;DHT22;33046;52.270;6.832;2023-11-21T02:51:49;10.70;99.90
47310;DHT22;33046;52.270;6.832;2023-11-21T02:53:56;10.60;99.90
47310;DHT22;33046;52.270;6.832;2023-11-21T02:56:03;10.60;99.90
47310;DHT22;33046;52.270;6.832;2023-11-21T02:58:12;10.60;99.90
47310;DHT22;33046;52.270;6.832;2023-11-21T03:00:19;10.60;99.90
47310;DHT22;33046;52.270;6.832;2023-11-21T03:02:26;10.60;99.90
47310;DHT22;33046;52.270;6.832;2023-11-21T03:04:33;10.60;99.90
47310;DHT22;33046;52.270;6.832;2023-11-21T03:06:39;10.60;99.90
47310;DHT22;33046;52.270;6.832;2023-11-21T03:08:47;10.60;99.90
47310;DHT22;33046;52.270;6.832;2023-11-21T03:10:54;10.60;99.90
47310;DHT22;33046;52.270;6.832;2023-11-21T03:13:02;10.60;99.90
47310;DHT22;33046;52.270;6.832;2023-11-21T03:15:12;10.60;99.90
47310;DHT22;33046;52.270;6.832;2023-11-21T03:17:19;10.60;99.90
47310;DHT22;33046;52.270;6.832;2023-11-21T03:19:25;10.60;99.90
47310;DHT22;33046;52.270;6.832;2023-11-21T03:21:33;10.60;99.90
47310;DHT22;33046;52.270;6.832;2023-11-21T03:23:40;10.60;99.90
47310;DHT22;33046;52.270;6.832;2023-11-21T03:25:46;10.60;99.90
47310;DHT22;33046;52.270;6.832;2023-11-21T03:27:53;10.60;99.90
47310;DHT22;33046;52.270;6.832;2023-11-21T03:30:00;10.60;99.90
47310;DHT22;33046;52.270;6.832;2023-11-21T03:32:08;10.60;99.90
47310;DHT22;33046;52.270;6.832;2023-11-21T03:34:24;10.60;99.90
47310;DHT22;33046;52.270;6.832;2023-11-21T03:36:31;10.60;99.90
47310;DHT22;33046;52.270;6.832;2023-11-21T03:38:38;10.60;99.90
47310;DHT22;33046;52.270;6.832;2023-11-21T03:40:45;10.60;99.90
47310;DHT22;33046;52.270;6.832;2023-11-21T03:42:51;10.60;99.90
47310;DHT22;33046;52.270;6.832;2023-11-21T03:45:00;10.60;99.90
47310;DHT22;33046;52.270;6.832;2023-11-21T03:47:07;10.60;99.90
47310;DHT22;33046;52.270;6.832;2023-11-21T03:49:15;10.60;99.90
47310;DHT22;33046;52.270;6.832;2023-11-21T03:51:22;10.60;99.90
47310;DHT22;33046;52.270;6.832;2023-11-21T03:53:28;10.60;99.90
47310;DHT22;33046;52.270;6.832;2023-11-21T03:55:35;10.60;99.90
47310;DHT22;33046;52.270;6.832;2023-11-21T03:57:43;10.60;99.90
47310;DHT22;33046;52.270;6.832;2023-11-21T03:59:50;10.60;99.90
47310;DHT22;33046;52.270;6.832;2023-11-21T04:01:57;10.60;99.90
47310;DHT22;33046;52.270;6.832;2023-11-21T04:04:04;10.60;99.90
47310;DHT22;33046;52.270;6.832;2023-11-21T04:06:12;10.60;99.90
47310;DHT22;33046;52.270;6.832;2023-11-21T04:08:19;10.60;99.90
47310;DHT22;33046;52.270;6.832;2023-11-21T04:10:26;10.60;99.90
47310;DHT22;33046;52.270;6.832;2023-11-21T04:12:33;10.60;99.90
47310;DHT22;33046;52.270;6.832;2023-11-21T04:14:39;10.60;99.90
47310;DHT22;33046;52.270;6.832;2023-11-21T04:16:46;10.60;99.90
47310;DHT22;33046;52.270;6.832;2023-11-21T04:18:53;10.60;99.90
47310;DHT22;33046;52.270;6.832;2023-11-21T04:21:00;10.60;99.90
47310;DHT22;33046;52.270;6.832;2023-11-21T04:23:08;10.50;99.90
47310;DHT22;33046;52.270;6.832;2023-11-21T04:25:15;10.50;99.90
47310;DHT22;33046;52.270;6.832;2023-11-21T04:27:22;10.50;99.90
47310;DHT22;33046;52.270;6.832;2023-11-21T04:29:29;10.50;99.90
47310;DHT22;33046;52.270;6.832;2023-11-21T04:31:36;10.50;99.90
47310;DHT22;33046;52.270;6.832;2023-11-21T04:33:42;10.50;99.90
47310;DHT22;33046;52.270;6.832;2023-11-21T04:35:49;10.50;99.90
47310;DHT22;33046;52.270;6.832;2023-11-21T04:37:56;10.50;99.90
47310;DHT22;33046;52.270;6.832;2023-11-21T04:40:05;10.50;99.90
47310;DHT22;33046;52.270;6.832;2023-11-21T04:42:12;10.50;99.90
47310;DHT22;33046;52.270;6.832;2023-11-21T04:44:19;10.50;99.90
47310;DHT22;33046;52.270;6.832;2023-11-21T04:46:26;10.50;99.90
47310;DHT22;33046;52.270;6.832;2023-11-21T04:48:33;10.50;99.90
47310;DHT22;33046;52.270;6.832;2023-11-21T04:50:40;10.50;99.90
47310;DHT22;33046;52.270;6.832;2023-11-21T04:52:46;10.50;99.90
47310;DHT22;33046;52.270;6.832;2023-11-21T04:54:53;10.50;99.90
47310;DHT22;33046;52.270;6.832;2023-11-21T04:57:01;10.50;99.90
47310;DHT22;33046;52.270;6.832;2023-11-21T04:59:08;10.50;99.90
47310;DHT22;33046;52.270;6.832;2023-11-21T05:01:15;10.50;99.90
47310;DHT22;33046;52.270;6.832;2023-11-21T05:03:22;10.50;99.90
47310;DHT22;33046;52.270;6.832;2023-11-21T05:05:29;10.50;99.90
47310;DHT22;33046;52.270;6.832;2023-11-21T05:07:36;10.50;99.90
47310;DHT22;33046;52.270;6.832;2023-11-21T05:09:43;10.50;99.90
47310;DHT22;33046;52.270;6.832;2023-11-21T05:11:50;10.50;99.90
47310;DHT22;33046;52.270;6.832;2023-11-21T05:13:58;10.50;99.90
47310;DHT22;33046;52.270;6.832;2023-11-21T05:16:05;10.50;99.90
47310;DHT22;33046;52.270;6.832;2023-11-21T05:18:12;10.50;99.90
47310;DHT22;33046;52.270;6.832;2023-11-21T05:20:20;10.50;99.90
47310;DHT22;33046;52.270;6.832;2023-11-21T05:22:27;10.50;99.90
47310;DHT22;33046;52.270;6.832;2023-11-21T05:24:33;10.50;99.90
47310;DHT22;33046;52.270;6.832;2023-11-21T05:26:40;10.50;99.90
47310;DHT22;33046;52.270;6.832;2023-11-21T05:28:47;10.50;99.90
47310;DHT22;33046;52.270;6.832;2023-11-21T05:30:55;10.40;99.90
47310;DHT22;33046;52.270;6.832;2023-11-21T05:33:09;10.40;99.90
47310;DHT22;33046;52.270;6.832;2023-11-21T05:35:16;10.50;99.90
47310;DHT22;33046;52.270;6.832;2023-11-21T05:37:23;10.40;99.90
47310;DHT22;33046;52.270;6.832;2023-11-21T05:39:29;10.50;99.90
47310;DHT22;33046;52.270;6.832;2023-11-21T05:41:36;10.50;99.90
47310;DHT22;33046;52.270;6.832;2023-11-21T05:43:43;10.40;99.90
47310;DHT22;33046;52.270;6.832;2023-11-21T05:45:50;10.50;99.90
47310;DHT22;33046;52.270;6.832;2023-11-21T05:47:58;10.40;99.90
47310;DHT22;33046;52.270;6.832;2023-11-21T05:50:06;10.50;99.90
47310;DHT22;33046;52.270;6.832;2023-11-21T05:52:13;10.50;99.90
47310;DHT22;33046;52.270;6.832;2023-11-21T05:54:20;10.50;99.90
47310;DHT22;33046;52.270;6.832;2023-11-21T05:56:27;10.50;99.90
47310;DHT22;33046;52.270;6.832;2023-11-21T05:58:33;10.50;99.90
47310;DHT22;33046;52.270;6.832;2023-11-21T06:00:40;10.50;99.90
47310;DHT22;33046;52.270;6.832;2023-11-21T06:02:47;10.50;99.90
47310;DHT22;33046;52.270;6.832;2023-11-21T06:04:56;10.50;99.90
47310;DHT22;33046;52.270;6.832;2023-11-21T06:07:03;10.50;99.90
47310;DHT22;33046;52.270;6.832;2023-11-21T06:09:10;10.50;99.90
47310;DHT22;33046;52.270;6.832;2023-11-21T06:11:16;10.50;99.90
47310;DHT22;33046;52.270;6.832;2023-11-21T06:13:23;10.50;99.90
47310;DHT22;33046;52.270;6.832;2023-11-21T06:15:30;10.50;99.90
47310;DHT22;33046;52.270;6.832;2023-11-21T06:17:37;10.50;99.90
47310;DHT22;33046;52.270;6.832;2023-11-21T06:19:44;10.50;99.90
47310;DHT22;33046;52.270;6.832;2023-11-21T06:21:52;10.50;99.90
47310;DHT22;33046;52.270;6.832;2023-11-21T06:23:59;10.50;99.90
47310;DHT22;33046;52.270;6.832;2023-11-21T06:26:06;10.50;99.90
47310;DHT22;33046;52.270;6.832;2023-11-21T06:28:13;10.50;99.90
47310;DHT22;33046;52.270;6.832;2023-11-21T06:30:20;10.50;99.90
47310;DHT22;33046;52.270;6.832;2023-11-21T06:32:27;10.50;99.90
47310;DHT22;33046;52.270;6.832;2023-11-21T06:34:34;10.50;99.90
47310;DHT22;33046;52.270;6.832;2023-11-21T06:36:40;10.50;99.90
47310;DHT22;33046;52.270;6.832;2023-11-21T06:38:49;10.50;99.90
47310;DHT22;33046;52.270;6.832;2023-11-21T06:40:56;10.50;99.90
47310;DHT22;33046;52.270;6.832;2023-11-21T06:43:02;10.50;99.90
47310;DHT22;33046;52.270;6.832;2023-11-21T06:45:10;10.50;99.90
47310;DHT22;33046;52.270;6.832;2023-11-21T06:47:16;10.50;99.90
47310;DHT22;33046;52.270;6.832;2023-11-21T06:49:23;10.50;99.90
47310;DHT22;33046;52.270;6.832;2023-11-21T06:51:30;10.50;99.90
47310;DHT22;33046;52.270;6.832;2023-11-21T06:53:37;10.40;99.90
47310;DHT22;33046;52.270;6.832;2023-11-21T06:55:46;10.50;99.90
47310;DHT22;33046;52.270;6.832;2023-11-21T06:57:53;10.50;99.90
47310;DHT22;33046;52.270;6.832;2023-11-21T07:00:00;10.50;99.90
47310;DHT22;33046;52.270;6.832;2023-11-21T07:02:07;10.50;99.90
47310;DHT22;33046;52.270;6.832;2023-11-21T07:04:13;10.50;99.90
47310;DHT22;33046;52.270;6.832;2023-11-21T07:06:20;10.50;99.90
47310;DHT22;33046;52.270;6.832;2023-11-21T07:08:27;10.50;99.90
47310;DHT22;33046;52.270;6.832;2023-11-21T07:10:34;10.50;99.90
47310;DHT22;33046;52.270;6.832;2023-11-21T07:12:43;10.50;99.90
47310;DHT22;33046;52.270;6.832;2023-11-21T07:14:49;10.50;99.90
47310;DHT22;33046;52.270;6.832;2023-11-21T07:16:56;10.50;99.90
47310;DHT22;33046;52.270;6.832;2023-11-21T07:19:03;10.50;99.90
47310;DHT22;33046;52.270;6.832;2023-11-21T07:21:10;10.50;99.90
47310;DHT22;33046;52.270;6.832;2023-11-21T07:23:17;10.50;99.90
47310;DHT22;33046;52.270;6.832;2023-11-21T07:25:24;10.50;99.90
47310;DHT22;33046;52.270;6.832;2023-11-21T07:27:31;10.50;99.90
47310;DHT22;33046;52.270;6.832;2023-11-21T07:29:39;10.50;99.90
47310;DHT22;33046;52.270;6.832;2023-11-21T07:31:46;10.50;99.90
47310;DHT22;33046;52.270;6.832;2023-11-21T07:33:53;10.50;99.90
47310;DHT22;33046;52.270;6.832;2023-11-21T07:35:59;10.50;99.90
47310;DHT22;33046;52.270;6.832;2023-11-21T07:38:06;10.50;99.90
47310;DHT22;33046;52.270;6.832;2023-11-21T07:40:13;10.60;99.90
47310;DHT22;33046;52.270;6.832;2023-11-21T07:42:20;10.60;99.90
47310;DHT22;33046;52.270;6.832;2023-11-21T07:44:28;10.60;99.90
47310;DHT22;33046;52.270;6.832;2023-11-21T07:46:36;10.60;99.90
47310;DHT22;33046;52.270;6.832;2023-11-21T07:48:43;10.60;99.90
47310;DHT22;33046;52.270;6.832;2023-11-21T07:50:50;10.60;99.90
47310;DHT22;33046;52.270;6.832;2023-11-21T07:52:57;10.60;99.90
47310;DHT22;33046;52.270;6.832;2023-11-21T07:55:05;10.60;99.90
47310;DHT22;33046;52.270;6.832;2023-11-21T07:57:12;10.60;99.90
47310;DHT22;33046;52.270;6.832;2023-11-21T07:59:18;10.60;99.90
47310;DHT22;33046;52.270;6.832;2023-11-21T08:01:25;10.60;99.90
47310;DHT22;33046;52.270;6.832;2023-11-21T08:03:33;10.60;99.90
47310;DHT22;33046;52.270;6.832;2023-11-21T08:05:40;10.70;99.90
47310;DHT22;33046;52.270;6.832;2023-11-21T08:07:47;10.70;99.90
47310;DHT22;33046;52.270;6.832;2023-11-21T08:09:54;10.70;99.90
47310;DHT22;33046;52.270;6.832;2023-11-21T08:12:01;10.70;99.90
47310;DHT22;33046;52.270;6.832;2023-11-21T08:14:08;10.70;99.90
47310;DHT22;33046;52.270;6.832;2023-11-21T08:16:14;10.70;99.90
47310;DHT22;33046;52.270;6.832;2023-11-21T08:18:21;10.70;99.90
47310;DHT22;33046;52.270;6.832;2023-11-21T08:20:30;10.70;99.90
47310;DHT22;33046;52.270;6.832;2023-11-21T08:22:37;10.70;99.90
47310;DHT22;33046;52.270;6.832;2023-11-21T08:24:44;10.80;99.90
47310;DHT22;33046;52.270;6.832;2023-11-21T08:26:51;10.70;99.90
47310;DHT22;33046;52.270;6.832;2023-11-21T08:28:57;10.80;99.90
47310;DHT22;33046;52.270;6.832;2023-11-21T08:31:04;10.80;99.90
47310;DHT22;33046;52.270;6.832;2023-11-21T08:33:11;10.80;99.90
47310;DHT22;33046;52.270;6.832;2023-11-21T08:35:18;10.80;99.90
47310;DHT22;33046;52.270;6.832;2023-11-21T08:37:26;10.80;99.90
47310;DHT22;33046;52.270;6.832;2023-11-21T08:39:33;10.70;99.90
47310;DHT22;33046;52.270;6.832;2023-11-21T08:41:40;10.80;99.90
47310;DHT22;33046;52.270;6.832;2023-11-21T08:43:47;10.80;99.90
47310;DHT22;33046;52.270;6.832;2023-11-21T08:45:55;10.70;99.90
47310;DHT22;33046;52.270;6.832;2023-11-21T08:48:02;10.70;99.90
47310;DHT22;33046;52.270;6.832;2023-11-21T08:50:09;10.70;99.90
47310;DHT22;33046;52.270;6.832;2023-11-21T08:52:16;10.70;99.90
47310;DHT22;33046;52.270;6.832;2023-11-21T08:54:26;10.70;99.90
47310;DHT22;33046;52.270;6.832;2023-11-21T08:56:32;10.70;99.90
47310;DHT22;33046;52.270;6.832;2023-11-21T08:58:39;10.80;99.90
47310;DHT22;33046;52.270;6.832;2023-11-21T09:00:46;10.80;99.90
47310;DHT22;33046;52.270;6.832;2023-11-21T09:02:53;10.80;99.90
47310;DHT22;33046;52.270;6.832;2023-11-21T09:05:00;10.90;99.90
47310;DHT22;33046;52.270;6.832;2023-11-21T09:07:07;10.90;99.90
47310;DHT22;33046;52.270;6.832;2023-11-21T09:09:14;11.00;99.90
47310;DHT22;33046;52.270;6.832;2023-11-21T09:11:22;11.00;99.90
47310;DHT22;33046;52.270;6.832;2023-11-21T09:13:29;11.10;99.90
47310;DHT22;33046;52.270;6.832;2023-11-21T09:15:35;11.10;99.90
47310;DHT22;33046;52.270;6.832;2023-11-21T09:17:42;11.00;99.90
47310;DHT22;33046;52.270;6.832;2023-11-21T09:19:49;11.10;99.90
47310;DHT22;33046;52.270;6.832;2023-11-21T09:21:56;11.10;99.90
47310;DHT22;33046;52.270;6.832;2023-11-21T09:24:04;11.10;99.90
47310;DHT22;33046;52.270;6.832;2023-11-21T09:26:11;11.20;99.90
47310;DHT22;33046;52.270;6.832;2023-11-21T09:28:19;11.10;99.90
47310;DHT22;33046;52.270;6.832;2023-11-21T09:30:26;11.20;99.90
47310;DHT22;33046;52.270;6.832;2023-11-21T09:32:33;11.10;99.90
47310;DHT22;33046;52.270;6.832;2023-11-21T09:34:40;11.20;99.90
47310;DHT22;33046;52.270;6.832;2023-11-21T09:36:47;11.20;99.90
47310;DHT22;33046;52.270;6.832;2023-11-21T09:38:54;11.30;99.90
47310;DHT22;33046;52.270;6.832;2023-11-21T09:41:01;11.30;99.90
47310;DHT22;33046;52.270;6.832;2023-11-21T09:43:14;11.30;99.90
47310;DHT22;33046;52.270;6.832;2023-11-21T09:45:26;11.30;99.90
47310;DHT22;33046;52.270;6.832;2023-11-21T09:47:35;11.30;99.90
47310;DHT22;33046;52.270;6.832;2023-11-21T09:49:47;11.40;99.90
47310;DHT22;33046;52.270;6.832;2023-11-21T09:51:55;11.30;99.90
47310;DHT22;33046;52.270;6.832;2023-11-21T09:54:03;11.40;99.90
47310;DHT22;33046;52.270;6.832;2023-11-21T09:56:10;11.40;99.90
47310;DHT22;33046;52.270;6.832;2023-11-21T09:58:17;11.40;99.90
47310;DHT22;33046;52.270;6.832;2023-11-21T10:00:26;11.40;99.90
47310;DHT22;33046;52.270;6.832;2023-11-21T10:02:33;11.50;99.90
47310;DHT22;33046;52.270;6.832;2023-11-21T10:04:41;11.40;99.90
47310;DHT22;33046;52.270;6.832;2023-11-21T10:06:50;11.40;99.90
47310;DHT22;33046;52.270;6.832;2023-11-21T10:08:59;11.50;99.90
47310;DHT22;33046;52.270;6.832;2023-11-21T10:11:07;11.50;99.90
47310;DHT22;33046;52.270;6.832;2023-11-21T10:13:15;11.50;99.90
47310;DHT22;33046;52.270;6.832;2023-11-21T10:15:23;11.50;99.90
47310;DHT22;33046;52.270;6.832;2023-11-21T10:17:33;11.50;99.90
47310;DHT22;33046;52.270;6.832;2023-11-21T10:19:42;11.50;99.90
47310;DHT22;33046;52.270;6.832;2023-11-21T10:21:50;11.50;99.90
47310;DHT22;33046;52.270;6.832;2023-11-21T10:23:57;11.50;99.90
47310;DHT22;33046;52.270;6.832;2023-11-21T10:26:04;11.50;99.90
47310;DHT22;33046;52.270;6.832;2023-11-21T10:28:13;11.40;99.90
47310;DHT22;33046;52.270;6.832;2023-11-21T10:30:20;11.50;99.90
47310;DHT22;33046;52.270;6.832;2023-11-21T10:32:28;11.50;99.90
47310;DHT22;33046;52.270;6.832;2023-11-21T10:34:36;11.50;99.90
47310;DHT22;33046;52.270;6.832;2023-11-21T10:36:43;11.50;99.90
47310;DHT22;33046;52.270;6.832;2023-11-21T10:38:50;11.50;99.90
47310;DHT22;33046;52.270;6.832;2023-11-21T10:40:57;11.60;99.90
47310;DHT22;33046;52.270;6.832;2023-11-21T10:43:06;11.70;99.90
47310;DHT22;33046;52.270;6.832;2023-11-21T10:45:13;11.70;99.90
47310;DHT22;33046;52.270;6.832;2023-11-21T10:47:20;11.70;99.90
47310;DHT22;33046;52.270;6.832;2023-11-21T10:49:27;11.70;99.90
47310;DHT22;33046;52.270;6.832;2023-11-21T10:51:35;11.70;99.90
47310;DHT22;33046;52.270;6.832;2023-11-21T10:53:42;11.70;99.90
47310;DHT22;33046;52.270;6.832;2023-11-21T10:55:49;11.70;99.90
47310;DHT22;33046;52.270;6.832;2023-11-21T10:57:58;11.70;99.90
47310;DHT22;33046;52.270;6.832;2023-11-21T11:00:07;11.70;99.90
47310;DHT22;33046;52.270;6.832;2023-11-21T11:02:21;11.70;99.90
47310;DHT22;33046;52.270;6.832;2023-11-21T11:04:30;11.70;99.90
47310;DHT22;33046;52.270;6.832;2023-11-21T11:06:38;11.70;99.90
47310;DHT22;33046;52.270;6.832;2023-11-21T11:08:46;11.70;99.90
47310;DHT22;33046;52.270;6.832;2023-11-21T11:10:55;11.70;99.90
47310;DHT22;33046;52.270;6.832;2023-11-21T11:13:02;11.70;99.90
47310;DHT22;33046;52.270;6.832;2023-11-21T11:15:09;11.60;99.90
47310;DHT22;33046;52.270;6.832;2023-11-21T11:17:17;11.60;99.90
47310;DHT22;33046;52.270;6.832;2023-11-21T11:19:25;11.60;99.90
47310;DHT22;33046;52.270;6.832;2023-11-21T11:21:43;11.60;99.90
47310;DHT22;33046;52.270;6.832;2023-11-21T11:24:05;11.60;99.90
47310;DHT22;33046;52.270;6.832;2023-11-21T11:26:24;11.60;99.90
47310;DHT22;33046;52.270;6.832;2023-11-21T11:28:41;11.60;99.90
47310;DHT22;33046;52.270;6.832;2023-11-21T11:31:00;11.60;99.90
47310;DHT22;33046;52.270;6.832;2023-11-21T11:33:19;11.60;99.90
47310;DHT22;33046;52.270;6.832;2023-11-21T11:35:33;11.60;99.90
47310;DHT22;33046;52.270;6.832;2023-11-21T11:37:42;11.60;99.90
47310;DHT22;33046;52.270;6.832;2023-11-21T11:39:49;11.60;99.90
47310;DHT22;33046;52.270;6.832;2023-11-21T11:41:58;11.60;99.90
47310;DHT22;33046;52.270;6.832;2023-11-21T11:46:53;11.60;99.90
47310;DHT22;33046;52.270;6.832;2023-11-21T11:49:02;11.60;99.90
47310;DHT22;33046;52.270;6.832;2023-11-21T11:51:11;11.50;99.90
47310;DHT22;33046;52.270;6.832;2023-11-21T11:53:20;11.40;99.90
47310;DHT22;33046;52.270;6.832;2023-11-21T11:55:27;11.40;99.90
47310;DHT22;33046;52.270;6.832;2023-11-21T11:57:34;11.30;99.90
47310;DHT22;33046;52.270;6.832;2023-11-21T12:00:13;11.30;99.90
47310;DHT22;33046;52.270;6.832;2023-11-21T12:02:22;11.30;99.90
47310;DHT22;33046;52.270;6.832;2023-11-21T12:04:29;11.30;99.90
47310;DHT22;33046;52.270;6.832;2023-11-21T12:06:36;11.30;99.90
47310;DHT22;33046;52.270;6.832;2023-11-21T12:08:45;11.30;99.90
47310;DHT22;33046;52.270;6.832;2023-11-21T12:10:52;11.20;99.90
47310;DHT22;33046;52.270;6.832;2023-11-21T12:13:02;11.20;99.90
47310;DHT22;33046;52.270;6.832;2023-11-21T12:15:10;11.30;99.90
47310;DHT22;33046;52.270;6.832;2023-11-21T12:17:17;11.20;99.90
47310;DHT22;33046;52.270;6.832;2023-11-21T12:19:24;11.20;99.90
47310;DHT22;33046;52.270;6.832;2023-11-21T12:21:31;11.20;99.90
47310;DHT22;33046;52.270;6.832;2023-11-21T12:23:38;11.20;99.90
47310;DHT22;33046;52.270;6.832;2023-11-21T12:25:46;11.20;99.90
47310;DHT22;33046;52.270;6.832;2023-11-21T12:27:53;11.20;99.90
47310;DHT22;33046;52.270;6.832;2023-11-21T12:30:00;11.20;99.90
47310;DHT22;33046;52.270;6.832;2023-11-21T12:32:07;11.30;99.90
47310;DHT22;33046;52.270;6.832;2023-11-21T12:34:14;11.30;99.90
47310;DHT22;33046;52.270;6.832;2023-11-21T12:36:21;11.30;99.90
47310;DHT22;33046;52.270;6.832;2023-11-21T12:38:34;11.30;99.90
47310;DHT22;33046;52.270;6.832;2023-11-21T12:40:40;11.30;99.90
47310;DHT22;33046;52.270;6.832;2023-11-21T12:42:54;11.30;99.90
47310;DHT22;33046;52.270;6.832;2023-11-21T12:45:18;11.30;99.90
47310;DHT22;33046;52.270;6.832;2023-11-21T12:47:25;11.40;99.90
47310;DHT22;33046;52.270;6.832;2023-11-21T12:49:32;11.30;99.90
47310;DHT22;33046;52.270;6.832;2023-11-21T12:51:38;11.40;99.90
47310;DHT22;33046;52.270;6.832;2023-11-21T12:53:45;11.40;99.90
47310;DHT22;33046;52.270;6.832;2023-11-21T12:55:56;11.40;99.90
47310;DHT22;33046;52.270;6.832;2023-11-21T12:58:07;11.30;99.90
47310;DHT22;33046;52.270;6.832;2023-11-21T13:00:15;11.30;99.90
47310;DHT22;33046;52.270;6.832;2023-11-21T13:02:22;11.30;99.90
47310;DHT22;33046;52.270;6.832;2023-11-21T13:04:33;11.30;99.90
47310;DHT22;33046;52.270;6.832;2023-11-21T13:06:39;11.30;99.90
47310;DHT22;33046;52.270;6.832;2023-11-21T13:08:46;11.20;99.90
47310;DHT22;33046;52.270;6.832;2023-11-21T13:10:54;11.20;99.90
47310;DHT22;33046;52.270;6.832;2023-11-21T13:13:04;11.20;99.90
47310;DHT22;33046;52.270;6.832;2023-11-21T13:15:14;11.20;99.90
47310;DHT22;33046;52.270;6.832;2023-11-21T13:17:20;11.10;99.90
47310;DHT22;33046;52.270;6.832;2023-11-21T13:19:27;11.10;99.90
47310;DHT22;33046;52.270;6.832;2023-11-21T13:21:34;11.10;99.90
47310;DHT22;33046;52.270;6.832;2023-11-21T13:23:41;11.10;99.90
47310;DHT22;33046;52.270;6.832;2023-11-21T13:25:48;11.10;99.90
47310;DHT22;33046;52.270;6.832;2023-11-21T13:27:58;11.10;99.90
47310;DHT22;33046;52.270;6.832;2023-11-21T13:30:07;11.10;99.90